sensor_id;sensor_type;location;lat;lon;timestamp;P1;durP1;ratioP1;P2;durP2;ratioP2
15708;SDS011;7954;51.914;8.420;2022-07-22T00:02:28;10.30;;;9.47;;
15708;SDS011;7954;51.914;8.420;2022-07-22T00:04:56;9.83;;;8.93;;
15708;SDS011;7954;51.914;8.420;2022-07-22T00:07:24;10.73;;;9.73;;
15708;SDS011;7954;51.914;8.420;2022-07-22T00:09:52;8.07;;;7.37;;
15708;SDS011;7954;51.914;8.420;2022-07-22T00:12:19;7.33;;;6.73;;
15708;SDS011;7954;51.914;8.420;2022-07-22T00:14:47;7.57;;;6.67;;
15708;SDS011;7954;51.914;8.420;2022-07-22T00:17:15;7.23;;;6.63;;
15708;SDS011;7954;51.914;8.420;2022-07-22T00:19:45;9.03;;;6.43;;
15708;SDS011;7954;51.914;8.420;2022-07-22T00:22:13;7.53;;;6.40;;
15708;SDS011;7954;51.914;8.420;2022-07-22T00:24:41;6.13;;;5.63;;
15708;SDS011;7954;51.914;8.420;2022-07-22T00:27:09;5.73;;;5.23;;
15708;SDS011;7954;51.914;8.420;2022-07-22T00:29:37;6.13;;;5.63;;
15708;SDS011;7954;51.914;8.420;2022-07-22T00:32:06;4.87;;;4.47;;
15708;SDS011;7954;51.914;8.420;2022-07-22T00:34:34;4.40;;;4.00;;
15708;SDS011;7954;51.914;8.420;2022-07-22T00:37:03;4.20;;;3.90;;
15708;SDS011;7954;51.914;8.420;2022-07-22T00:39:32;3.73;;;3.43;;
15708;SDS011;7954;51.914;8.420;2022-07-22T00:42:00;3.40;;;3.10;;
15708;SDS011;7954;51.914;8.420;2022-07-22T00:44:29;3.63;;;3.10;;
15708;SDS011;7954;51.914;8.420;2022-07-22T00:47:03;3.20;;;3.00;;
15708;SDS011;7954;51.914;8.420;2022-07-22T00:49:31;3.73;;;3.43;;
15708;SDS011;7954;51.914;8.420;2022-07-22T00:51:59;3.60;;;3.30;;
15708;SDS011;7954;51.914;8.420;2022-07-22T00:54:29;3.50;;;3.20;;
15708;SDS011;7954;51.914;8.420;2022-07-22T00:56:58;3.40;;;3.10;;
15708;SDS011;7954;51.914;8.420;2022-07-22T00:59:26;3.43;;;3.13;;
15708;SDS011;7954;51.914;8.420;2022-07-22T01:01:55;3.57;;;2.77;;
15708;SDS011;7954;51.914;8.420;2022-07-22T01:04:23;3.10;;;2.90;;
15708;SDS011;7954;51.914;8.420;2022-07-22T01:06:51;3.20;;;3.00;;
15708;SDS011;7954;51.914;8.420;2022-07-22T01:09:19;3.70;;;3.40;;
15708;SDS011;7954;51.914;8.420;2022-07-22T01:11:49;3.60;;;3.30;;
15708;SDS011;7954;51.914;8.420;2022-07-22T01:14:16;4.07;;;3.77;;
15708;SDS011;7954;51.914;8.420;2022-07-22T01:16:45;4.27;;;3.87;;
15708;SDS011;7954;51.914;8.420;2022-07-22T01:19:15;3.93;;;3.63;;
15708;SDS011;7954;51.914;8.420;2022-07-22T01:21:44;4.93;;;4.10;;
15708;SDS011;7954;51.914;8.420;2022-07-22T01:24:13;4.43;;;3.70;;
15708;SDS011;7954;51.914;8.420;2022-07-22T01:26:41;4.97;;;4.07;;
15708;SDS011;7954;51.914;8.420;2022-07-22T01:29:08;4.00;;;3.70;;
15708;SDS011;7954;51.914;8.420;2022-07-22T01:31:36;8.70;;;4.17;;
15708;SDS011;7954;51.914;8.420;2022-07-22T01:34:05;3.80;;;3.50;;
15708;SDS011;7954;51.914;8.420;2022-07-22T01:36:33;4.47;;;4.07;;
15708;SDS011;7954;51.914;8.420;2022-07-22T01:39:03;4.53;;;4.13;;
15708;SDS011;7954;51.914;8.420;2022-07-22T01:41:31;4.50;;;4.10;;
15708;SDS011;7954;51.914;8.420;2022-07-22T01:43:59;5.07;;;4.67;;
15708;SDS011;7954;51.914;8.420;2022-07-22T01:46:27;4.60;;;4.20;;
15708;SDS011;7954;51.914;8.420;2022-07-22T01:48:55;4.77;;;4.37;;
15708;SDS011;7954;51.914;8.420;2022-07-22T01:51:24;5.10;;;4.70;;
15708;SDS011;7954;51.914;8.420;2022-07-22T01:53:52;5.33;;;4.93;;
15708;SDS011;7954;51.914;8.420;2022-07-22T01:56:22;5.07;;;4.67;;
15708;SDS011;7954;51.914;8.420;2022-07-22T01:58:50;5.00;;;4.57;;
15708;SDS011;7954;51.914;8.420;2022-07-22T02:01:18;5.20;;;4.80;;
15708;SDS011;7954;51.914;8.420;2022-07-22T02:03:46;5.43;;;4.93;;
15708;SDS011;7954;51.914;8.420;2022-07-22T02:06:14;4.57;;;4.27;;
15708;SDS011;7954;51.914;8.420;2022-07-22T02:08:41;4.40;;;4.00;;
15708;SDS011;7954;51.914;8.420;2022-07-22T02:11:09;4.60;;;4.20;;
15708;SDS011;7954;51.914;8.420;2022-07-22T02:13:40;3.60;;;3.30;;
15708;SDS011;7954;51.914;8.420;2022-07-22T02:16:08;3.40;;;3.20;;
15708;SDS011;7954;51.914;8.420;2022-07-22T02:18:44;4.10;;;3.63;;
15708;SDS011;7954;51.914;8.420;2022-07-22T02:21:12;3.90;;;3.20;;
15708;SDS011;7954;51.914;8.420;2022-07-22T02:23:40;3.70;;;3.40;;
15708;SDS011;7954;51.914;8.420;2022-07-22T02:26:08;3.73;;;3.43;;
15708;SDS011;7954;51.914;8.420;2022-07-22T02:28:36;4.03;;;3.20;;
15708;SDS011;7954;51.914;8.420;2022-07-22T02:31:05;3.57;;;3.27;;
15708;SDS011;7954;51.914;8.420;2022-07-22T02:33:33;3.80;;;3.50;;
15708;SDS011;7954;51.914;8.420;2022-07-22T02:36:01;3.40;;;3.20;;
15708;SDS011;7954;51.914;8.420;2022-07-22T02:38:32;3.70;;;3.40;;
15708;SDS011;7954;51.914;8.420;2022-07-22T02:41:00;3.43;;;3.13;;
15708;SDS011;7954;51.914;8.420;2022-07-22T02:43:28;3.93;;;3.60;;
15708;SDS011;7954;51.914;8.420;2022-07-22T02:45:56;3.33;;;3.10;;
15708;SDS011;7954;51.914;8.420;2022-07-22T02:48:26;3.57;;;3.27;;
15708;SDS011;7954;51.914;8.420;2022-07-22T02:50:54;3.10;;;2.80;;
15708;SDS011;7954;51.914;8.420;2022-07-22T02:53:22;3.20;;;3.00;;
15708;SDS011;7954;51.914;8.420;2022-07-22T02:55:50;3.53;;;3.23;;
15708;SDS011;7954;51.914;8.420;2022-07-22T02:58:18;3.50;;;3.20;;
15708;SDS011;7954;51.914;8.420;2022-07-22T03:00:46;3.30;;;2.80;;
15708;SDS011;7954;51.914;8.420;2022-07-22T03:03:14;3.53;;;3.00;;
15708;SDS011;7954;51.914;8.420;2022-07-22T03:05:43;3.13;;;2.83;;
15708;SDS011;7954;51.914;8.420;2022-07-22T03:08:11;3.53;;;3.33;;
15708;SDS011;7954;51.914;8.420;2022-07-22T03:10:39;3.40;;;3.20;;
15708;SDS011;7954;51.914;8.420;2022-07-22T03:13:08;3.77;;;3.30;;
15708;SDS011;7954;51.914;8.420;2022-07-22T03:15:35;3.57;;;3.30;;
15708;SDS011;7954;51.914;8.420;2022-07-22T03:18:03;3.70;;;3.40;;
15708;SDS011;7954;51.914;8.420;2022-07-22T03:20:31;3.67;;;3.37;;
15708;SDS011;7954;51.914;8.420;2022-07-22T03:23:01;3.43;;;3.13;;
15708;SDS011;7954;51.914;8.420;2022-07-22T03:25:29;4.50;;;4.10;;
15708;SDS011;7954;51.914;8.420;2022-07-22T03:27:58;4.70;;;4.30;;
15708;SDS011;7954;51.914;8.420;2022-07-22T03:30:27;5.43;;;4.63;;
15708;SDS011;7954;51.914;8.420;2022-07-22T03:32:55;5.20;;;4.70;;
15708;SDS011;7954;51.914;8.420;2022-07-22T03:35:23;5.23;;;4.83;;
15708;SDS011;7954;51.914;8.420;2022-07-22T03:37:51;5.20;;;4.70;;
15708;SDS011;7954;51.914;8.420;2022-07-22T03:40:20;4.93;;;4.53;;
15708;SDS011;7954;51.914;8.420;2022-07-22T03:42:48;5.00;;;4.57;;
15708;SDS011;7954;51.914;8.420;2022-07-22T03:45:17;4.40;;;4.00;;
15708;SDS011;7954;51.914;8.420;2022-07-22T03:47:45;5.43;;;4.87;;
15708;SDS011;7954;51.914;8.420;2022-07-22T03:50:13;5.47;;;4.97;;
15708;SDS011;7954;51.914;8.420;2022-07-22T03:52:41;4.43;;;3.97;;
15708;SDS011;7954;51.914;8.420;2022-07-22T03:55:09;4.80;;;4.40;;
15708;SDS011;7954;51.914;8.420;2022-07-22T03:57:39;4.20;;;3.80;;
15708;SDS011;7954;51.914;8.420;2022-07-22T04:00:07;4.20;;;3.80;;
15708;SDS011;7954;51.914;8.420;2022-07-22T04:02:36;6.07;;;4.20;;
15708;SDS011;7954;51.914;8.420;2022-07-22T04:05:04;4.40;;;3.83;;
15708;SDS011;7954;51.914;8.420;2022-07-22T04:07:33;4.20;;;3.90;;
15708;SDS011;7954;51.914;8.420;2022-07-22T04:10:01;5.10;;;4.20;;
15708;SDS011;7954;51.914;8.420;2022-07-22T04:12:33;6.50;;;4.70;;
15708;SDS011;7954;51.914;8.420;2022-07-22T04:15:05;5.00;;;4.60;;
15708;SDS011;7954;51.914;8.420;2022-07-22T04:17:35;5.07;;;4.57;;
15708;SDS011;7954;51.914;8.420;2022-07-22T04:20:04;4.63;;;4.20;;
15708;SDS011;7954;51.914;8.420;2022-07-22T04:22:34;4.17;;;3.87;;
15708;SDS011;7954;51.914;8.420;2022-07-22T04:25:02;4.97;;;4.23;;
15708;SDS011;7954;51.914;8.420;2022-07-22T04:27:30;4.27;;;3.87;;
15708;SDS011;7954;51.914;8.420;2022-07-22T04:29:59;4.30;;;3.90;;
15708;SDS011;7954;51.914;8.420;2022-07-22T04:32:29;4.47;;;4.00;;
15708;SDS011;7954;51.914;8.420;2022-07-22T04:34:57;3.87;;;3.57;;
15708;SDS011;7954;51.914;8.420;2022-07-22T04:37:25;4.83;;;3.50;;
15708;SDS011;7954;51.914;8.420;2022-07-22T04:39:52;3.93;;;3.63;;
15708;SDS011;7954;51.914;8.420;2022-07-22T04:42:20;5.97;;;3.63;;
15708;SDS011;7954;51.914;8.420;2022-07-22T04:44:48;4.63;;;4.10;;
15708;SDS011;7954;51.914;8.420;2022-07-22T04:47:16;4.07;;;3.23;;
15708;SDS011;7954;51.914;8.420;2022-07-22T04:49:46;3.97;;;3.63;;
15708;SDS011;7954;51.914;8.420;2022-07-22T04:52:14;3.80;;;3.50;;
15708;SDS011;7954;51.914;8.420;2022-07-22T04:54:43;3.63;;;3.30;;
15708;SDS011;7954;51.914;8.420;2022-07-22T04:57:12;3.90;;;3.10;;
15708;SDS011;7954;51.914;8.420;2022-07-22T04:59:41;3.67;;;3.37;;
15708;SDS011;7954;51.914;8.420;2022-07-22T05:02:08;4.27;;;3.87;;
15708;SDS011;7954;51.914;8.420;2022-07-22T05:04:37;4.07;;;3.40;;
15708;SDS011;7954;51.914;8.420;2022-07-22T05:07:06;3.50;;;3.20;;
15708;SDS011;7954;51.914;8.420;2022-07-22T05:09:35;3.60;;;3.30;;
15708;SDS011;7954;51.914;8.420;2022-07-22T05:12:03;3.77;;;3.40;;
15708;SDS011;7954;51.914;8.420;2022-07-22T05:14:32;5.57;;;3.43;;
15708;SDS011;7954;51.914;8.420;2022-07-22T05:17:00;4.70;;;3.10;;
15708;SDS011;7954;51.914;8.420;2022-07-22T05:19:28;4.03;;;3.10;;
15708;SDS011;7954;51.914;8.420;2022-07-22T05:21:56;3.37;;;2.80;;
15708;SDS011;7954;51.914;8.420;2022-07-22T05:24:25;4.67;;;3.10;;
15708;SDS011;7954;51.914;8.420;2022-07-22T05:26:53;3.93;;;2.53;;
15708;SDS011;7954;51.914;8.420;2022-07-22T05:29:21;4.23;;;3.23;;
15708;SDS011;7954;51.914;8.420;2022-07-22T05:31:49;3.10;;;2.80;;
15708;SDS011;7954;51.914;8.420;2022-07-22T05:34:17;4.73;;;2.53;;
15708;SDS011;7954;51.914;8.420;2022-07-22T05:36:45;3.60;;;2.50;;
15708;SDS011;7954;51.914;8.420;2022-07-22T05:39:13;3.10;;;2.20;;
15708;SDS011;7954;51.914;8.420;2022-07-22T05:41:42;2.20;;;2.00;;
15708;SDS011;7954;51.914;8.420;2022-07-22T05:44:10;2.93;;;2.17;;
15708;SDS011;7954;51.914;8.420;2022-07-22T05:46:38;2.90;;;2.43;;
15708;SDS011;7954;51.914;8.420;2022-07-22T05:49:07;3.47;;;2.63;;
15708;SDS011;7954;51.914;8.420;2022-07-22T05:51:35;3.90;;;2.47;;
15708;SDS011;7954;51.914;8.420;2022-07-22T05:54:03;2.80;;;2.60;;
15708;SDS011;7954;51.914;8.420;2022-07-22T05:56:31;3.23;;;2.53;;
15708;SDS011;7954;51.914;8.420;2022-07-22T05:59:01;3.77;;;2.37;;
15708;SDS011;7954;51.914;8.420;2022-07-22T06:01:28;2.50;;;2.27;;
15708;SDS011;7954;51.914;8.420;2022-07-22T06:03:57;3.27;;;2.80;;
15708;SDS011;7954;51.914;8.420;2022-07-22T06:06:25;3.50;;;2.70;;
15708;SDS011;7954;51.914;8.420;2022-07-22T06:08:53;2.90;;;2.70;;
15708;SDS011;7954;51.914;8.420;2022-07-22T06:11:21;3.03;;;2.57;;
15708;SDS011;7954;51.914;8.420;2022-07-22T06:13:49;4.43;;;3.37;;
15708;SDS011;7954;51.914;8.420;2022-07-22T06:16:18;4.57;;;3.13;;
15708;SDS011;7954;51.914;8.420;2022-07-22T06:18:46;3.87;;;3.03;;
15708;SDS011;7954;51.914;8.420;2022-07-22T06:21:14;3.73;;;3.43;;
15708;SDS011;7954;51.914;8.420;2022-07-22T06:23:42;3.70;;;3.40;;
15708;SDS011;7954;51.914;8.420;2022-07-22T06:26:10;3.70;;;3.33;;
15708;SDS011;7954;51.914;8.420;2022-07-22T06:28:37;4.33;;;3.67;;
15708;SDS011;7954;51.914;8.420;2022-07-22T06:31:05;3.57;;;3.23;;
15708;SDS011;7954;51.914;8.420;2022-07-22T06:33:35;4.03;;;3.33;;
15708;SDS011;7954;51.914;8.420;2022-07-22T06:36:04;4.63;;;3.60;;
15708;SDS011;7954;51.914;8.420;2022-07-22T06:38:32;2.90;;;2.70;;
15708;SDS011;7954;51.914;8.420;2022-07-22T06:41:07;4.87;;;2.50;;
15708;SDS011;7954;51.914;8.420;2022-07-22T06:43:35;2.23;;;2.03;;
15708;SDS011;7954;51.914;8.420;2022-07-22T06:46:03;2.53;;;2.20;;
15708;SDS011;7954;51.914;8.420;2022-07-22T06:48:31;2.23;;;2.07;;
15708;SDS011;7954;51.914;8.420;2022-07-22T06:51:00;2.97;;;1.70;;
15708;SDS011;7954;51.914;8.420;2022-07-22T06:53:28;1.70;;;1.60;;
15708;SDS011;7954;51.914;8.420;2022-07-22T06:55:56;1.73;;;1.63;;
15708;SDS011;7954;51.914;8.420;2022-07-22T06:58:31;2.83;;;1.70;;
15708;SDS011;7954;51.914;8.420;2022-07-22T07:00:59;2.00;;;1.60;;
15708;SDS011;7954;51.914;8.420;2022-07-22T07:03:27;1.80;;;1.50;;
15708;SDS011;7954;51.914;8.420;2022-07-22T07:06:03;1.80;;;1.70;;
15708;SDS011;7954;51.914;8.420;2022-07-22T07:08:34;1.70;;;1.60;;
15708;SDS011;7954;51.914;8.420;2022-07-22T07:11:06;1.77;;;1.63;;
15708;SDS011;7954;51.914;8.420;2022-07-22T07:13:34;1.80;;;1.70;;
15708;SDS011;7954;51.914;8.420;2022-07-22T07:16:02;1.80;;;1.70;;
15708;SDS011;7954;51.914;8.420;2022-07-22T07:18:32;2.83;;;1.90;;
15708;SDS011;7954;51.914;8.420;2022-07-22T07:21:00;2.80;;;2.00;;
15708;SDS011;7954;51.914;8.420;2022-07-22T07:23:30;2.27;;;2.07;;
15708;SDS011;7954;51.914;8.420;2022-07-22T07:25:58;3.67;;;2.60;;
15708;SDS011;7954;51.914;8.420;2022-07-22T07:28:26;4.20;;;2.70;;
15708;SDS011;7954;51.914;8.420;2022-07-22T07:30:55;4.37;;;2.47;;
15708;SDS011;7954;51.914;8.420;2022-07-22T07:33:22;5.77;;;3.10;;
15708;SDS011;7954;51.914;8.420;2022-07-22T07:35:52;5.07;;;2.67;;
15708;SDS011;7954;51.914;8.420;2022-07-22T07:38:20;6.10;;;3.40;;
15708;SDS011;7954;51.914;8.420;2022-07-22T07:40:49;4.50;;;2.93;;
15708;SDS011;7954;51.914;8.420;2022-07-22T07:43:17;3.27;;;2.83;;
15708;SDS011;7954;51.914;8.420;2022-07-22T07:45:46;5.43;;;3.23;;
15708;SDS011;7954;51.914;8.420;2022-07-22T07:48:14;4.80;;;3.23;;
15708;SDS011;7954;51.914;8.420;2022-07-22T07:50:42;6.67;;;3.23;;
15708;SDS011;7954;51.914;8.420;2022-07-22T07:53:12;4.57;;;2.77;;
15708;SDS011;7954;51.914;8.420;2022-07-22T07:55:44;5.77;;;2.93;;
15708;SDS011;7954;51.914;8.420;2022-07-22T07:58:13;6.23;;;3.60;;
15708;SDS011;7954;51.914;8.420;2022-07-22T08:00:42;7.13;;;3.03;;
15708;SDS011;7954;51.914;8.420;2022-07-22T08:03:09;3.20;;;2.60;;
15708;SDS011;7954;51.914;8.420;2022-07-22T08:05:38;5.40;;;3.00;;
15708;SDS011;7954;51.914;8.420;2022-07-22T08:08:07;3.90;;;2.60;;
15708;SDS011;7954;51.914;8.420;2022-07-22T08:10:40;4.07;;;2.73;;
15708;SDS011;7954;51.914;8.420;2022-07-22T08:13:28;4.00;;;2.63;;
15708;SDS011;7954;51.914;8.420;2022-07-22T08:15:56;5.63;;;2.57;;
15708;SDS011;7954;51.914;8.420;2022-07-22T08:18:25;4.77;;;3.10;;
15708;SDS011;7954;51.914;8.420;2022-07-22T08:20:53;4.57;;;2.53;;
15708;SDS011;7954;51.914;8.420;2022-07-22T08:23:21;4.13;;;2.33;;
15708;SDS011;7954;51.914;8.420;2022-07-22T08:25:49;4.13;;;2.60;;
15708;SDS011;7954;51.914;8.420;2022-07-22T08:28:17;3.90;;;2.47;;
15708;SDS011;7954;51.914;8.420;2022-07-22T08:30:48;4.60;;;2.33;;
15708;SDS011;7954;51.914;8.420;2022-07-22T08:33:16;2.33;;;1.90;;
15708;SDS011;7954;51.914;8.420;2022-07-22T08:35:45;3.17;;;2.23;;
15708;SDS011;7954;51.914;8.420;2022-07-22T08:38:13;4.00;;;2.40;;
15708;SDS011;7954;51.914;8.420;2022-07-22T08:40:42;2.80;;;2.17;;
15708;SDS011;7954;51.914;8.420;2022-07-22T08:43:10;4.83;;;2.40;;
15708;SDS011;7954;51.914;8.420;2022-07-22T08:45:39;2.90;;;2.20;;
15708;SDS011;7954;51.914;8.420;2022-07-22T08:48:10;2.63;;;1.70;;
15708;SDS011;7954;51.914;8.420;2022-07-22T08:50:38;2.53;;;2.07;;
15708;SDS011;7954;51.914;8.420;2022-07-22T08:53:08;3.60;;;2.33;;
15708;SDS011;7954;51.914;8.420;2022-07-22T08:55:39;3.73;;;2.50;;
15708;SDS011;7954;51.914;8.420;2022-07-22T08:58:08;3.37;;;2.20;;
15708;SDS011;7954;51.914;8.420;2022-07-22T09:00:36;4.20;;;2.67;;
15708;SDS011;7954;51.914;8.420;2022-07-22T09:03:17;4.63;;;2.53;;
15708;SDS011;7954;51.914;8.420;2022-07-22T09:05:47;9.87;;;3.20;;
15708;SDS011;7954;51.914;8.420;2022-07-22T09:08:24;3.13;;;2.30;;
15708;SDS011;7954;51.914;8.420;2022-07-22T09:10:52;4.07;;;2.57;;
15708;SDS011;7954;51.914;8.420;2022-07-22T09:13:22;4.10;;;2.80;;
15708;SDS011;7954;51.914;8.420;2022-07-22T09:15:51;3.63;;;2.63;;
15708;SDS011;7954;51.914;8.420;2022-07-22T09:18:23;6.40;;;3.20;;
15708;SDS011;7954;51.914;8.420;2022-07-22T09:20:51;3.97;;;3.27;;
15708;SDS011;7954;51.914;8.420;2022-07-22T09:23:25;5.10;;;2.80;;
15708;SDS011;7954;51.914;8.420;2022-07-22T09:25:53;6.97;;;3.67;;
15708;SDS011;7954;51.914;8.420;2022-07-22T09:28:22;3.80;;;3.40;;
15708;SDS011;7954;51.914;8.420;2022-07-22T09:30:53;3.53;;;3.17;;
15708;SDS011;7954;51.914;8.420;2022-07-22T09:33:25;5.47;;;3.70;;
15708;SDS011;7954;51.914;8.420;2022-07-22T09:36:00;4.57;;;3.27;;
15708;SDS011;7954;51.914;8.420;2022-07-22T09:38:29;3.67;;;2.90;;
15708;SDS011;7954;51.914;8.420;2022-07-22T09:40:59;3.57;;;3.23;;
15708;SDS011;7954;51.914;8.420;2022-07-22T09:43:27;3.17;;;2.57;;
15708;SDS011;7954;51.914;8.420;2022-07-22T09:46:00;3.13;;;2.83;;
15708;SDS011;7954;51.914;8.420;2022-07-22T09:48:29;4.93;;;3.00;;
15708;SDS011;7954;51.914;8.420;2022-07-22T09:50:58;2.87;;;2.20;;
15708;SDS011;7954;51.914;8.420;2022-07-22T09:53:27;2.63;;;2.30;;
15708;SDS011;7954;51.914;8.420;2022-07-22T09:55:57;2.70;;;1.83;;
15708;SDS011;7954;51.914;8.420;2022-07-22T09:58:26;2.50;;;1.90;;
15708;SDS011;7954;51.914;8.420;2022-07-22T10:00:57;2.43;;;1.80;;
15708;SDS011;7954;51.914;8.420;2022-07-22T10:03:27;2.10;;;1.90;;
15708;SDS011;7954;51.914;8.420;2022-07-22T10:05:58;2.67;;;1.70;;
15708;SDS011;7954;51.914;8.420;2022-07-22T10:08:27;1.93;;;1.43;;
15708;SDS011;7954;51.914;8.420;2022-07-22T10:10:58;3.37;;;1.83;;
15708;SDS011;7954;51.914;8.420;2022-07-22T10:13:27;2.30;;;2.07;;
15708;SDS011;7954;51.914;8.420;2022-07-22T10:15:56;2.97;;;2.10;;
15708;SDS011;7954;51.914;8.420;2022-07-22T10:18:25;3.90;;;2.30;;
15708;SDS011;7954;51.914;8.420;2022-07-22T10:21:04;3.00;;;2.37;;
15708;SDS011;7954;51.914;8.420;2022-07-22T10:23:33;3.67;;;2.33;;
15708;SDS011;7954;51.914;8.420;2022-07-22T10:26:03;3.17;;;2.53;;
15708;SDS011;7954;51.914;8.420;2022-07-22T10:28:33;3.73;;;2.63;;
15708;SDS011;7954;51.914;8.420;2022-07-22T10:33:55;2.03;;;1.77;;
15708;SDS011;7954;51.914;8.420;2022-07-22T10:39:09;3.23;;;1.90;;
15708;SDS011;7954;51.914;8.420;2022-07-22T10:41:40;1.77;;;1.60;;
15708;SDS011;7954;51.914;8.420;2022-07-22T10:44:29;2.80;;;1.70;;
15708;SDS011;7954;51.914;8.420;2022-07-22T10:50:43;2.87;;;1.83;;
15708;SDS011;7954;51.914;8.420;2022-07-22T10:53:15;2.57;;;1.70;;
15708;SDS011;7954;51.914;8.420;2022-07-22T10:55:59;2.07;;;1.87;;
15708;SDS011;7954;51.914;8.420;2022-07-22T10:58:52;3.67;;;1.90;;
15708;SDS011;7954;51.914;8.420;2022-07-22T11:01:27;2.60;;;1.60;;
15708;SDS011;7954;51.914;8.420;2022-07-22T11:04:06;2.00;;;1.70;;
15708;SDS011;7954;51.914;8.420;2022-07-22T11:06:43;3.77;;;1.90;;
15708;SDS011;7954;51.914;8.420;2022-07-22T11:09:14;2.33;;;1.87;;
15708;SDS011;7954;51.914;8.420;2022-07-22T11:11:45;4.47;;;2.00;;
15708;SDS011;7954;51.914;8.420;2022-07-22T11:14:15;2.47;;;2.13;;
15708;SDS011;7954;51.914;8.420;2022-07-22T11:16:46;2.00;;;1.90;;
15708;SDS011;7954;51.914;8.420;2022-07-22T11:19:19;2.37;;;2.10;;
15708;SDS011;7954;51.914;8.420;2022-07-22T11:21:49;2.40;;;1.77;;
15708;SDS011;7954;51.914;8.420;2022-07-22T11:24:20;2.00;;;1.87;;
15708;SDS011;7954;51.914;8.420;2022-07-22T11:26:49;1.60;;;1.40;;
15708;SDS011;7954;51.914;8.420;2022-07-22T11:29:23;2.07;;;1.60;;
15708;SDS011;7954;51.914;8.420;2022-07-22T11:31:53;1.57;;;1.40;;
15708;SDS011;7954;51.914;8.420;2022-07-22T11:34:22;2.33;;;1.60;;
15708;SDS011;7954;51.914;8.420;2022-07-22T11:36:52;2.37;;;1.50;;
15708;SDS011;7954;51.914;8.420;2022-07-22T11:39:22;3.27;;;1.40;;
15708;SDS011;7954;51.914;8.420;2022-07-22T11:41:53;2.60;;;2.20;;
15708;SDS011;7954;51.914;8.420;2022-07-22T11:44:23;3.20;;;1.60;;
15708;SDS011;7954;51.914;8.420;2022-07-22T11:46:53;5.07;;;1.90;;
15708;SDS011;7954;51.914;8.420;2022-07-22T11:49:25;3.20;;;1.80;;
15708;SDS011;7954;51.914;8.420;2022-07-22T11:51:54;2.33;;;1.80;;
15708;SDS011;7954;51.914;8.420;2022-07-22T11:54:24;3.00;;;2.53;;
15708;SDS011;7954;51.914;8.420;2022-07-22T11:56:52;4.97;;;1.87;;
15708;SDS011;7954;51.914;8.420;2022-07-22T11:59:23;2.03;;;1.80;;
15708;SDS011;7954;51.914;8.420;2022-07-22T12:01:51;2.37;;;1.90;;
15708;SDS011;7954;51.914;8.420;2022-07-22T12:04:21;2.03;;;1.83;;
15708;SDS011;7954;51.914;8.420;2022-07-22T12:06:50;2.77;;;1.60;;
15708;SDS011;7954;51.914;8.420;2022-07-22T12:09:21;2.23;;;1.77;;
15708;SDS011;7954;51.914;8.420;2022-07-22T12:11:55;4.33;;;2.10;;
15708;SDS011;7954;51.914;8.420;2022-07-22T12:14:25;3.63;;;2.10;;
15708;SDS011;7954;51.914;8.420;2022-07-22T12:16:55;2.80;;;1.90;;
15708;SDS011;7954;51.914;8.420;2022-07-22T12:19:24;2.47;;;1.97;;
15708;SDS011;7954;51.914;8.420;2022-07-22T12:21:56;3.10;;;1.80;;
15708;SDS011;7954;51.914;8.420;2022-07-22T12:24:30;2.13;;;1.90;;
15708;SDS011;7954;51.914;8.420;2022-07-22T12:26:59;2.87;;;1.80;;
15708;SDS011;7954;51.914;8.420;2022-07-22T12:29:29;2.87;;;1.87;;
15708;SDS011;7954;51.914;8.420;2022-07-22T12:32:08;2.83;;;2.10;;
15708;SDS011;7954;51.914;8.420;2022-07-22T12:34:38;3.33;;;2.00;;
15708;SDS011;7954;51.914;8.420;2022-07-22T12:37:12;2.47;;;2.00;;
15708;SDS011;7954;51.914;8.420;2022-07-22T12:39:54;2.40;;;2.10;;
15708;SDS011;7954;51.914;8.420;2022-07-22T12:42:25;3.67;;;2.07;;
15708;SDS011;7954;51.914;8.420;2022-07-22T12:45:00;2.87;;;2.20;;
15708;SDS011;7954;51.914;8.420;2022-07-22T12:47:47;3.30;;;2.53;;
15708;SDS011;7954;51.914;8.420;2022-07-22T12:50:17;2.90;;;2.13;;
15708;SDS011;7954;51.914;8.420;2022-07-22T12:52:46;3.70;;;1.97;;
15708;SDS011;7954;51.914;8.420;2022-07-22T12:55:36;2.83;;;2.00;;
15708;SDS011;7954;51.914;8.420;2022-07-22T12:58:06;2.30;;;2.10;;
15708;SDS011;7954;51.914;8.420;2022-07-22T13:00:36;2.60;;;2.10;;
15708;SDS011;7954;51.914;8.420;2022-07-22T13:03:05;2.23;;;1.97;;
15708;SDS011;7954;51.914;8.420;2022-07-22T13:05:33;2.40;;;2.20;;
15708;SDS011;7954;51.914;8.420;2022-07-22T13:08:02;3.10;;;2.30;;
15708;SDS011;7954;51.914;8.420;2022-07-22T13:10:36;2.67;;;1.93;;
15708;SDS011;7954;51.914;8.420;2022-07-22T13:13:05;3.60;;;2.47;;
15708;SDS011;7954;51.914;8.420;2022-07-22T13:15:33;3.03;;;2.17;;
15708;SDS011;7954;51.914;8.420;2022-07-22T13:18:01;2.53;;;2.10;;
15708;SDS011;7954;51.914;8.420;2022-07-22T13:20:31;2.93;;;2.30;;
15708;SDS011;7954;51.914;8.420;2022-07-22T13:23:00;3.40;;;2.27;;
15708;SDS011;7954;51.914;8.420;2022-07-22T13:25:28;3.27;;;2.27;;
15708;SDS011;7954;51.914;8.420;2022-07-22T13:28:01;5.83;;;2.70;;
15708;SDS011;7954;51.914;8.420;2022-07-22T13:30:30;4.23;;;2.43;;
15708;SDS011;7954;51.914;8.420;2022-07-22T13:32:58;2.37;;;2.17;;
15708;SDS011;7954;51.914;8.420;2022-07-22T13:35:26;2.63;;;2.30;;
15708;SDS011;7954;51.914;8.420;2022-07-22T13:37:56;3.30;;;2.23;;
15708;SDS011;7954;51.914;8.420;2022-07-22T13:40:24;3.70;;;2.30;;
15708;SDS011;7954;51.914;8.420;2022-07-22T13:42:52;4.57;;;3.67;;
15708;SDS011;7954;51.914;8.420;2022-07-22T13:45:22;3.53;;;3.17;;
15708;SDS011;7954;51.914;8.420;2022-07-22T13:47:50;4.40;;;4.00;;
15708;SDS011;7954;51.914;8.420;2022-07-22T13:50:17;4.60;;;4.07;;
15708;SDS011;7954;51.914;8.420;2022-07-22T13:52:45;6.43;;;4.43;;
15708;SDS011;7954;51.914;8.420;2022-07-22T13:55:13;3.83;;;3.53;;
15708;SDS011;7954;51.914;8.420;2022-07-22T13:57:41;4.70;;;4.30;;
15708;SDS011;7954;51.914;8.420;2022-07-22T14:00:09;12.17;;;5.63;;
15708;SDS011;7954;51.914;8.420;2022-07-22T14:02:42;5.63;;;5.13;;
15708;SDS011;7954;51.914;8.420;2022-07-22T14:05:11;5.67;;;5.17;;
15708;SDS011;7954;51.914;8.420;2022-07-22T14:07:41;5.07;;;4.67;;
15708;SDS011;7954;51.914;8.420;2022-07-22T14:10:09;5.30;;;4.80;;
15708;SDS011;7954;51.914;8.420;2022-07-22T14:12:38;4.90;;;4.50;;
15708;SDS011;7954;51.914;8.420;2022-07-22T14:15:06;5.33;;;4.93;;
15708;SDS011;7954;51.914;8.420;2022-07-22T14:17:35;4.77;;;4.37;;
15708;SDS011;7954;51.914;8.420;2022-07-22T14:20:05;6.57;;;4.40;;
15708;SDS011;7954;51.914;8.420;2022-07-22T14:22:34;4.50;;;4.10;;
15708;SDS011;7954;51.914;8.420;2022-07-22T14:25:02;6.47;;;5.27;;
15708;SDS011;7954;51.914;8.420;2022-07-22T14:27:31;5.20;;;4.70;;
15708;SDS011;7954;51.914;8.420;2022-07-22T14:29:59;5.83;;;4.17;;
15708;SDS011;7954;51.914;8.420;2022-07-22T14:32:27;4.90;;;4.50;;
15708;SDS011;7954;51.914;8.420;2022-07-22T14:34:54;5.33;;;4.83;;
15708;SDS011;7954;51.914;8.420;2022-07-22T14:37:24;4.60;;;4.20;;
15708;SDS011;7954;51.914;8.420;2022-07-22T14:39:53;5.10;;;4.60;;
15708;SDS011;7954;51.914;8.420;2022-07-22T14:42:20;5.97;;;4.80;;
15708;SDS011;7954;51.914;8.420;2022-07-22T14:44:49;5.23;;;4.73;;
15708;SDS011;7954;51.914;8.420;2022-07-22T14:47:17;5.37;;;4.93;;
15708;SDS011;7954;51.914;8.420;2022-07-22T14:49:45;5.33;;;4.83;;
15708;SDS011;7954;51.914;8.420;2022-07-22T14:52:13;5.20;;;4.80;;
15708;SDS011;7954;51.914;8.420;2022-07-22T14:54:42;5.00;;;4.60;;
15708;SDS011;7954;51.914;8.420;2022-07-22T14:57:10;3.83;;;3.53;;
15708;SDS011;7954;51.914;8.420;2022-07-22T14:59:38;5.73;;;4.17;;
15708;SDS011;7954;51.914;8.420;2022-07-22T15:02:06;5.20;;;4.60;;
15708;SDS011;7954;51.914;8.420;2022-07-22T15:04:34;4.50;;;4.10;;
15708;SDS011;7954;51.914;8.420;2022-07-22T15:07:02;4.17;;;3.87;;
15708;SDS011;7954;51.914;8.420;2022-07-22T15:09:30;4.60;;;4.20;;
15708;SDS011;7954;51.914;8.420;2022-07-22T15:11:59;5.00;;;4.50;;
15708;SDS011;7954;51.914;8.420;2022-07-22T15:14:27;4.87;;;4.47;;
15708;SDS011;7954;51.914;8.420;2022-07-22T15:16:55;5.30;;;4.80;;
15708;SDS011;7954;51.914;8.420;2022-07-22T15:19:23;4.23;;;3.70;;
15708;SDS011;7954;51.914;8.420;2022-07-22T15:21:53;4.20;;;3.80;;
15708;SDS011;7954;51.914;8.420;2022-07-22T15:24:21;4.63;;;4.13;;